C Handy — V7VW8 — position and weather

sailwx.info

Track history (hours):
 
Tides and Currents Weather Stations Pressure Air Temp Water Temp Dewpoint Dewpoint Depression Visibility Wind Speed Wind Dir Waves Ship Positions

C Handy

Last reported at 2017-May-28 10:57 UTC. Time now 2017-May-29 11:16 UTC.
Position N 35°55' E 016°17'.

Length 186 m; draft 9.5 m.

Type: Cargo ship. MMSI: 538004231.

Date/timePositionNaut miles runAvg speedWind from/ knotsBaromVisibWave heightAir tempDewpointWater temp
2017-May-28 10:57N 35°55' E 016°17'614.0
2017-May-28 10:30N 35°57' E 016°10'714.1
2017-May-28 10:00N 35°59' E 016°02'4914.1
2017-May-28 06:31N 36°13' E 015°03'114.6
2017-May-28 06:29N 36°13' E 015°03'814.8
2017-May-28 05:55N 36°16' E 014°53'715.1
2017-May-28 05:26N 36°18' E 014°44'615.0
2017-May-28 05:00N 36°20' E 014°37'714.8
2017-May-28 04:30N 36°22' E 014°28'714.6
2017-May-28 04:00N 36°24' E 014°19'714.3
2017-May-28 03:30N 36°26' E 014°11'714.2
2017-May-28 03:00N 36°29' E 014°02'714.1
2017-May-28 02:30N 36°31' E 013°54'814.1
2017-May-28 01:55N 36°33' E 013°44'614.2
2017-May-28 01:30N 36°35' E 013°37'714.1
2017-May-28 01:01N 36°37' E 013°29'713.8
2017-May-28 00:29N 36°39' E 013°20'713.9
2017-May-27 23:59N 36°41' E 013°12'714.1
2017-May-27 23:28N 36°43' E 013°03'914.4
2017-May-27 22:52N 36°46' E 012°53'1714.7
2017-May-27 21:43N 36°53' E 012°34'314.8
2017-May-27 21:30N 36°54' E 012°30'714.5
2017-May-27 20:59N 36°57' E 012°22'6014.3
2017-May-27 16:47N 37°21' E 011°13'414.8
2017-May-27 16:30N 37°23' E 011°08'914.6
2017-May-27 15:55N 37°27' E 010°58'714.5
2017-May-27 15:25N 37°29' E 010°50'614.5
2017-May-27 15:00N 37°30' E 010°42'19313.8
2017-May-27 01:00N 37°22' E 006°39'713.7
2017-May-27 00:28N 37°21' E 006°30'1613.3
2017-May-26 23:15N 37°19' E 006°10'313.3
2017-May-26 23:00N 37°18' E 006°06'713.4
2017-May-26 22:30N 37°17' E 005°58'713.4
2017-May-26 22:00N 37°16' E 005°49'713.3
2017-May-26 21:31N 37°16' E 005°41'713.6
2017-May-26 21:00N 37°15' E 005°32'713.5
2017-May-26 20:29N 37°14' E 005°24'713.6
2017-May-26 20:00N 37°13' E 005°16'4013.8
2017-May-26 17:06N 37°07' E 004°26'413.5
2017-May-26 16:48N 37°06' E 004°21'413.5
2017-May-26 16:30N 37°05' E 004°16'613.0
2017-May-26 16:01N 37°05' E 004°08'713.0
2017-May-26 15:30N 37°04' E 003°60'612.8
2017-May-26 15:00N 37°03' E 003°52'1313.1
2017-May-26 14:00N 37°02' E 003°36'612.7
2017-May-26 13:30N 37°01' E 003°28'812.7
2017-May-26 12:53N 36°60' E 003°18'512.6
2017-May-26 12:30N 36°59' E 003°12'612.5
2017-May-26 12:00N 36°59' E 003°04'613.0
2017-May-26 11:30N 36°58' E 002°56'713.3
2017-May-26 11:01N 36°57' E 002°48'713.3
2017-May-26 10:29N 36°56' E 002°40'713.4
2017-May-26 10:00N 36°55' E 002°32'713.2
2017-May-26 09:30N 36°54' E 002°23'713.3
2017-May-26 08:59N 36°52' E 002°15'713.2
2017-May-26 08:29N 36°51' E 002°07'613.2
2017-May-26 08:00N 36°50' E 001°59'713.2
2017-May-26 07:30N 36°49' E 001°51'713.3
2017-May-26 07:01N 36°48' E 001°43'713.3
2017-May-26 06:30N 36°47' E 001°34'713.4
2017-May-26 05:59N 36°46' E 001°26'713.9
2017-May-26 05:30N 36°45' E 001°18'714.2
2017-May-26 05:00N 36°43' E 001°09'714.3
2017-May-26 04:30N 36°42' E 001°00'714.3
2017-May-26 04:00N 36°41' E 000°51'714.0
2017-May-26 03:30N 36°40' E 000°43'714.0
2017-May-26 03:00N 36°39' E 000°34'714.5
2017-May-26 02:30N 36°38' E 000°25'3714.5
2017-May-26 00:00N 36°31' W 000°20'714.4
2017-May-25 23:29N 36°30' W 000°29'914.1
2017-May-25 22:51N 36°29' W 000°40'2013.8
2017-May-25 21:22N 36°24' W 001°04'1013.2
2017-May-25 20:35N 36°22' W 001°17'312.8
2017-May-25 20:23N 36°21' W 001°20'512.6
2017-May-25 20:00N 36°20' W 001°26'712.8
2017-May-25 19:28N 36°20' W 001°34'1112.7
2017-May-25 18:38N 36°19' W 001°47'16513.9
2017-May-25 06:45N 35°59' W 005°11'314.1
2017-May-25 06:30N 35°59' W 005°15'714.0
2017-May-25 06:00N 35°58' W 005°24'815.5
2017-May-25 05:30N 35°56' W 005°33'815.9
2017-May-25 05:00N 35°54' W 005°43'16613.3
2017-May-24 16:33N 36°21' W 009°05'115.2
2017-May-24 16:30N 36°21' W 009°06'813.5
2017-May-24 15:56N 36°23' W 009°15'4912.3
2017-May-24 11:58N 37°01' W 009°53'2213.6
2017-May-24 10:22N 37°22' W 010°01'613.7
2017-May-24 09:57N 37°27' W 010°04'613.7
2017-May-24 09:30N 37°33' W 010°06'713.7
2017-May-24 09:00N 37°40' W 010°08'714.0
2017-May-24 08:30N 37°46' W 010°11'714.2
2017-May-24 08:00N 37°53' W 010°14'714.2
2017-May-24 07:30N 37°60' W 010°17'714.2
2017-May-24 07:00N 38°07' W 010°20'714.5
2017-May-24 06:30N 38°13' W 010°23'714.2
2017-May-24 06:00N 38°20' W 010°26'714.2
2017-May-24 05:30N 38°27' W 010°29'714.2
2017-May-24 05:00N 38°34' W 010°30'714.6
2017-May-24 04:30N 38°41' W 010°30'714.7
2017-May-24 04:00N 38°49' W 010°31'714.7
2017-May-24 03:30N 38°56' W 010°32'714.6
2017-May-24 03:00N 39°03' W 010°32'714.1
2017-May-24 02:31N 39°10' W 010°33'714.1
2017-May-24 02:00N 39°17' W 010°33'714.0
2017-May-24 01:30N 39°24' W 010°34'714.2
2017-May-24 01:00N 39°31' W 010°34'714.3
2017-May-24 00:30N 39°39' W 010°35'714.4
2017-May-24 00:00N 39°46' W 010°35'714.5
2017-May-23 23:30N 39°53' W 010°36'714.2
2017-May-23 23:00N 40°00' W 010°37'714.2
2017-May-23 22:30N 40°07' W 010°37'49913.5
2017-May-22 09:33N 47°56' W 006°37'1313.4
2017-May-22 08:33N 48°07' W 006°26'6813.9
2017-May-22 03:38N 49°02' W 005°25'514.0
2017-May-22 03:18N 49°04' W 005°18'2013.6
2017-May-22 01:52N 49°13' W 004°52'513.3
2017-May-22 01:27N 49°16' W 004°45'613.2
2017-May-22 01:00N 49°20' W 004°37'713.3
2017-May-22 00:30N 49°23' W 004°29'713.6
2017-May-22 00:00N 49°27' W 004°20'713.9
2017-May-21 23:30N 49°30' W 004°11'714.2
2017-May-21 23:01N 49°34' W 004°02'714.7
2017-May-21 22:30N 49°38' W 003°52'815.1
2017-May-21 21:59N 49°42' W 003°42'715.4
2017-May-21 21:31N 49°46' W 003°32'815.6
2017-May-21 21:01N 49°50' W 003°22'815.6
2017-May-21 20:30N 49°54' W 003°11'815.4
2017-May-21 20:01N 49°57' W 003°00'715.0
2017-May-21 19:31N 49°60' W 002°50'814.5
2017-May-21 18:59N 50°02' W 002°38'714.1
2017-May-21 18:29N 50°04' W 002°28'813.4
2017-May-21 17:51N 50°06' W 002°15'512.8
2017-May-21 17:30N 50°07' W 002°08'812.4
2017-May-21 16:53N 50°09' W 001°57'512.0
2017-May-21 16:30N 50°10' W 001°49'611.9
2017-May-21 16:00N 50°11' W 001°40'1012.2
2017-May-21 15:09N 50°14' W 001°25'512.6
2017-May-21 14:47N 50°16' W 001°18'1013.2
2017-May-21 14:00N 50°18' W 001°03'714.2
2017-May-21 13:29N 50°20' W 000°52'714.8
2017-May-21 13:00N 50°22' W 000°41'815.1
2017-May-21 12:30N 50°25' W 000°30'815.4
2017-May-21 12:00N 50°27' W 000°18'815.6
2017-May-21 11:30N 50°29' W 000°06'815.6
2017-May-21 11:00N 50°31' E 000°05'815.4
2017-May-21 10:31N 50°34' E 000°17'815.2
2017-May-21 10:00N 50°35' E 000°28'714.5
2017-May-21 09:30N 50°38' E 000°39'714.3
2017-May-21 09:01N 50°42' E 000°48'713.6
2017-May-21 08:30N 50°46' E 000°58'613.0
2017-May-21 08:01N 50°49' E 001°06'712.6
2017-May-21 07:26N 50°53' E 001°16'512.3
2017-May-21 07:01N 50°57' E 001°21'612.3
2017-May-21 06:30N 51°02' E 001°27'612.5
2017-May-21 06:01N 51°06' E 001°35'713.1
2017-May-21 05:31N 51°11' E 001°42'713.9
2017-May-21 05:01N 51°17' E 001°48'714.8
2017-May-21 04:31N 51°23' E 001°54'815.1
2017-May-21 04:01N 51°30' E 001°60'815.1
2017-May-21 03:31N 51°35' E 002°08'815.1
2017-May-21 02:59N 51°41' E 002°17'11312.8
2017-May-20 18:08N 53°25' E 003°30'6913.1
2017-May-20 12:52N 54°19' E 004°43'513.6
2017-May-20 12:28N 54°24' E 004°47'613.6
2017-May-20 11:59N 54°30' E 004°51'713.8
2017-May-20 11:29N 54°37' E 004°54'713.9
2017-May-20 11:00N 54°43' E 004°58'713.7
2017-May-20 10:30N 54°50' E 005°02'16913.6
2017-May-19 22:03N 57°09' E 007°52'513.8
2017-May-19 21:42N 57°13' E 007°58'1113.8
2017-May-19 20:56N 57°19' E 008°14'614.1
2017-May-19 20:30N 57°23' E 008°22'714.1
2017-May-19 20:00N 57°28' E 008°32'714.0
2017-May-19 19:30N 57°32' E 008°43'714.2
2017-May-19 19:00N 57°35' E 008°55'714.2
2017-May-19 18:30N 57°38' E 009°07'714.2
2017-May-19 18:00N 57°40' E 009°19'714.5
2017-May-19 17:30N 57°42' E 009°32'714.7
2017-May-19 17:00N 57°44' E 009°46'814.8
2017-May-19 16:30N 57°46' E 009°59'714.4
2017-May-19 16:00N 57°47' E 010°13'714.0
2017-May-19 15:30N 57°48' E 010°25'713.7
2017-May-19 15:00N 57°49' E 010°38'1312.8
2017-May-19 14:00N 57°42' E 010°58'713.8
2017-May-19 13:30N 57°37' E 011°08'714.4
2017-May-19 13:00N 57°32' E 011°18'713.6
2017-May-19 12:30N 57°28' E 011°26'714.0
2017-May-19 12:00N 57°21' E 011°31'714.1
2017-May-19 11:30N 57°14' E 011°35'714.0
2017-May-19 11:00N 57°08' E 011°39'713.7
2017-May-19 10:29N 57°01' E 011°44'813.9
2017-May-19 09:56N 56°54' E 011°48'714.1
2017-May-19 09:27N 56°48' E 011°52'613.2
2017-May-19 09:00N 56°42' E 011°50'714.7
2017-May-19 08:30N 56°35' E 011°43'714.6
2017-May-19 08:00N 56°29' E 011°37'814.4
2017-May-19 07:27N 56°22' E 011°29'614.1
2017-May-19 07:00N 56°17' E 011°24'714.1
2017-May-19 06:30N 56°11' E 011°17'5511.5
2017-May-19 01:41N 55°16' E 011°04'1712.5
2017-May-19 00:19N 54°59' E 010°59'413.4
2017-May-19 00:00N 54°56' E 010°53'713.2
2017-May-18 23:30N 54°50' E 010°51'612.5
2017-May-18 23:00N 54°44' E 010°47'612.1
2017-May-18 22:30N 54°39' E 010°52'713.7
2017-May-18 22:00N 54°36' E 011°03'713.9
2017-May-18 21:30N 54°35' E 011°14'714.2
2017-May-18 21:00N 54°32' E 011°25'714.1
2017-May-18 20:29N 54°28' E 011°37'1613.4
2017-May-18 19:16N 54°26' E 012°05'413.6
2017-May-18 19:00N 54°27' E 012°10'714.1
2017-May-18 18:30N 54°33' E 012°15'713.7
2017-May-18 18:00N 54°38' E 012°23'3813.9
2017-May-18 15:16N 54°55' E 013°22'414.3
2017-May-18 15:00N 54°56' E 013°29'1414.3
2017-May-18 14:00N 55°01' E 013°52'714.3
2017-May-18 13:30N 55°04' E 014°03'713.7
2017-May-18 13:00N 55°08' E 014°12'713.3
2017-May-18 12:30N 55°14' E 014°17'714.1
2017-May-18 12:00N 55°20' E 014°25'714.3
2017-May-18 11:30N 55°26' E 014°32'713.8
2017-May-18 11:00N 55°28' E 014°43'  
Track history (hours):
 
Tides and Currents Weather Stations Pressure Air Temp Water Temp Dewpoint Dewpoint Depression Visibility Wind Speed Wind Dir Waves Ship Positions

C Handy

Last reported at 2017-May-28 10:57 UTC. Time now 2017-May-29 11:16 UTC.
Position N 35°55' E 016°17'.

Length 186 m; draft 9.5 m.

Type: Cargo ship. MMSI: 538004231.

Date/timePositionNaut miles runAvg speedWind from/ knotsBaromVisibWave heightAir tempDewpointWater temp
2017-May-28 10:57N 35°55' E 016°17'614.0
2017-May-28 10:30N 35°57' E 016°10'714.1
2017-May-28 10:00N 35°59' E 016°02'4914.1
2017-May-28 06:31N 36°13' E 015°03'114.6
2017-May-28 06:29N 36°13' E 015°03'814.8
2017-May-28 05:55N 36°16' E 014°53'715.1
2017-May-28 05:26N 36°18' E 014°44'615.0
2017-May-28 05:00N 36°20' E 014°37'714.8
2017-May-28 04:30N 36°22' E 014°28'714.6
2017-May-28 04:00N 36°24' E 014°19'714.3
2017-May-28 03:30N 36°26' E 014°11'714.2
2017-May-28 03:00N 36°29' E 014°02'714.1
2017-May-28 02:30N 36°31' E 013°54'814.1
2017-May-28 01:55N 36°33' E 013°44'614.2
2017-May-28 01:30N 36°35' E 013°37'714.1
2017-May-28 01:01N 36°37' E 013°29'713.8
2017-May-28 00:29N 36°39' E 013°20'713.9
2017-May-27 23:59N 36°41' E 013°12'714.1
2017-May-27 23:28N 36°43' E 013°03'914.4
2017-May-27 22:52N 36°46' E 012°53'1714.7
2017-May-27 21:43N 36°53' E 012°34'314.8
2017-May-27 21:30N 36°54' E 012°30'714.5
2017-May-27 20:59N 36°57' E 012°22'6014.3
2017-May-27 16:47N 37°21' E 011°13'414.8
2017-May-27 16:30N 37°23' E 011°08'914.6
2017-May-27 15:55N 37°27' E 010°58'714.5
2017-May-27 15:25N 37°29' E 010°50'614.5
2017-May-27 15:00N 37°30' E 010°42'19313.8
2017-May-27 01:00N 37°22' E 006°39'713.7
2017-May-27 00:28N 37°21' E 006°30'1613.3
2017-May-26 23:15N 37°19' E 006°10'313.3
2017-May-26 23:00N 37°18' E 006°06'713.4
2017-May-26 22:30N 37°17' E 005°58'713.4
2017-May-26 22:00N 37°16' E 005°49'713.3
2017-May-26 21:31N 37°16' E 005°41'713.6
2017-May-26 21:00N 37°15' E 005°32'713.5
2017-May-26 20:29N 37°14' E 005°24'713.6
2017-May-26 20:00N 37°13' E 005°16'4013.8
2017-May-26 17:06N 37°07' E 004°26'413.5
2017-May-26 16:48N 37°06' E 004°21'413.5
2017-May-26 16:30N 37°05' E 004°16'613.0
2017-May-26 16:01N 37°05' E 004°08'713.0
2017-May-26 15:30N 37°04' E 003°60'612.8
2017-May-26 15:00N 37°03' E 003°52'1313.1
2017-May-26 14:00N 37°02' E 003°36'612.7
2017-May-26 13:30N 37°01' E 003°28'812.7
2017-May-26 12:53N 36°60' E 003°18'512.6
2017-May-26 12:30N 36°59' E 003°12'612.5
2017-May-26 12:00N 36°59' E 003°04'613.0
2017-May-26 11:30N 36°58' E 002°56'713.3
2017-May-26 11:01N 36°57' E 002°48'713.3
2017-May-26 10:29N 36°56' E 002°40'713.4
2017-May-26 10:00N 36°55' E 002°32'713.2
2017-May-26 09:30N 36°54' E 002°23'713.3
2017-May-26 08:59N 36°52' E 002°15'713.2
2017-May-26 08:29N 36°51' E 002°07'613.2
2017-May-26 08:00N 36°50' E 001°59'713.2
2017-May-26 07:30N 36°49' E 001°51'713.3
2017-May-26 07:01N 36°48' E 001°43'713.3
2017-May-26 06:30N 36°47' E 001°34'713.4
2017-May-26 05:59N 36°46' E 001°26'713.9
2017-May-26 05:30N 36°45' E 001°18'714.2
2017-May-26 05:00N 36°43' E 001°09'714.3
2017-May-26 04:30N 36°42' E 001°00'714.3
2017-May-26 04:00N 36°41' E 000°51'714.0
2017-May-26 03:30N 36°40' E 000°43'714.0
2017-May-26 03:00N 36°39' E 000°34'714.5
2017-May-26 02:30N 36°38' E 000°25'3714.5
2017-May-26 00:00N 36°31' W 000°20'714.4
2017-May-25 23:29N 36°30' W 000°29'914.1
2017-May-25 22:51N 36°29' W 000°40'2013.8
2017-May-25 21:22N 36°24' W 001°04'1013.2
2017-May-25 20:35N 36°22' W 001°17'312.8
2017-May-25 20:23N 36°21' W 001°20'512.6
2017-May-25 20:00N 36°20' W 001°26'712.8
2017-May-25 19:28N 36°20' W 001°34'1112.7
2017-May-25 18:38N 36°19' W 001°47'16513.9
2017-May-25 06:45N 35°59' W 005°11'314.1
2017-May-25 06:30N 35°59' W 005°15'714.0
2017-May-25 06:00N 35°58' W 005°24'815.5
2017-May-25 05:30N 35°56' W 005°33'815.9
2017-May-25 05:00N 35°54' W 005°43'16613.3
2017-May-24 16:33N 36°21' W 009°05'115.2
2017-May-24 16:30N 36°21' W 009°06'813.5
2017-May-24 15:56N 36°23' W 009°15'4912.3
2017-May-24 11:58N 37°01' W 009°53'2213.6
2017-May-24 10:22N 37°22' W 010°01'613.7
2017-May-24 09:57N 37°27' W 010°04'613.7
2017-May-24 09:30N 37°33' W 010°06'713.7
2017-May-24 09:00N 37°40' W 010°08'714.0
2017-May-24 08:30N 37°46' W 010°11'714.2
2017-May-24 08:00N 37°53' W 010°14'714.2
2017-May-24 07:30N 37°60' W 010°17'714.2
2017-May-24 07:00N 38°07' W 010°20'714.5
2017-May-24 06:30N 38°13' W 010°23'714.2
2017-May-24 06:00N 38°20' W 010°26'714.2
2017-May-24 05:30N 38°27' W 010°29'714.2
2017-May-24 05:00N 38°34' W 010°30'714.6
2017-May-24 04:30N 38°41' W 010°30'714.7
2017-May-24 04:00N 38°49' W 010°31'714.7
2017-May-24 03:30N 38°56' W 010°32'714.6
2017-May-24 03:00N 39°03' W 010°32'714.1
2017-May-24 02:31N 39°10' W 010°33'714.1
2017-May-24 02:00N 39°17' W 010°33'714.0
2017-May-24 01:30N 39°24' W 010°34'714.2
2017-May-24 01:00N 39°31' W 010°34'714.3
2017-May-24 00:30N 39°39' W 010°35'714.4
2017-May-24 00:00N 39°46' W 010°35'714.5
2017-May-23 23:30N 39°53' W 010°36'714.2
2017-May-23 23:00N 40°00' W 010°37'714.2
2017-May-23 22:30N 40°07' W 010°37'49913.5
2017-May-22 09:33N 47°56' W 006°37'1313.4
2017-May-22 08:33N 48°07' W 006°26'6813.9
2017-May-22 03:38N 49°02' W 005°25'514.0
2017-May-22 03:18N 49°04' W 005°18'2013.6
2017-May-22 01:52N 49°13' W 004°52'513.3
2017-May-22 01:27N 49°16' W 004°45'613.2
2017-May-22 01:00N 49°20' W 004°37'713.3
2017-May-22 00:30N 49°23' W 004°29'713.6
2017-May-22 00:00N 49°27' W 004°20'713.9
2017-May-21 23:30N 49°30' W 004°11'714.2
2017-May-21 23:01N 49°34' W 004°02'714.7
2017-May-21 22:30N 49°38' W 003°52'815.1
2017-May-21 21:59N 49°42' W 003°42'715.4
2017-May-21 21:31N 49°46' W 003°32'815.6
2017-May-21 21:01N 49°50' W 003°22'815.6
2017-May-21 20:30N 49°54' W 003°11'815.4
2017-May-21 20:01N 49°57' W 003°00'715.0
2017-May-21 19:31N 49°60' W 002°50'814.5
2017-May-21 18:59N 50°02' W 002°38'714.1
2017-May-21 18:29N 50°04' W 002°28'813.4
2017-May-21 17:51N 50°06' W 002°15'512.8
2017-May-21 17:30N 50°07' W 002°08'812.4
2017-May-21 16:53N 50°09' W 001°57'512.0
2017-May-21 16:30N 50°10' W 001°49'611.9
2017-May-21 16:00N 50°11' W 001°40'1012.2
2017-May-21 15:09N 50°14' W 001°25'512.6
2017-May-21 14:47N 50°16' W 001°18'1013.2
2017-May-21 14:00N 50°18' W 001°03'714.2
2017-May-21 13:29N 50°20' W 000°52'714.8
2017-May-21 13:00N 50°22' W 000°41'815.1
2017-May-21 12:30N 50°25' W 000°30'815.4
2017-May-21 12:00N 50°27' W 000°18'815.6
2017-May-21 11:30N 50°29' W 000°06'815.6
2017-May-21 11:00N 50°31' E 000°05'815.4
2017-May-21 10:31N 50°34' E 000°17'815.2
2017-May-21 10:00N 50°35' E 000°28'714.5
2017-May-21 09:30N 50°38' E 000°39'714.3
2017-May-21 09:01N 50°42' E 000°48'713.6
2017-May-21 08:30N 50°46' E 000°58'613.0
2017-May-21 08:01N 50°49' E 001°06'712.6
2017-May-21 07:26N 50°53' E 001°16'512.3
2017-May-21 07:01N 50°57' E 001°21'612.3
2017-May-21 06:30N 51°02' E 001°27'612.5
2017-May-21 06:01N 51°06' E 001°35'713.1
2017-May-21 05:31N 51°11' E 001°42'713.9
2017-May-21 05:01N 51°17' E 001°48'714.8
2017-May-21 04:31N 51°23' E 001°54'815.1
2017-May-21 04:01N 51°30' E 001°60'815.1
2017-May-21 03:31N 51°35' E 002°08'815.1
2017-May-21 02:59N 51°41' E 002°17'11312.8
2017-May-20 18:08N 53°25' E 003°30'6913.1
2017-May-20 12:52N 54°19' E 004°43'513.6
2017-May-20 12:28N 54°24' E 004°47'613.6
2017-May-20 11:59N 54°30' E 004°51'713.8
2017-May-20 11:29N 54°37' E 004°54'713.9
2017-May-20 11:00N 54°43' E 004°58'713.7
2017-May-20 10:30N 54°50' E 005°02'16913.6
2017-May-19 22:03N 57°09' E 007°52'513.8
2017-May-19 21:42N 57°13' E 007°58'1113.8
2017-May-19 20:56N 57°19' E 008°14'614.1
2017-May-19 20:30N 57°23' E 008°22'714.1
2017-May-19 20:00N 57°28' E 008°32'714.0
2017-May-19 19:30N 57°32' E 008°43'714.2
2017-May-19 19:00N 57°35' E 008°55'714.2
2017-May-19 18:30N 57°38' E 009°07'714.2
2017-May-19 18:00N 57°40' E 009°19'714.5
2017-May-19 17:30N 57°42' E 009°32'714.7
2017-May-19 17:00N 57°44' E 009°46'814.8
2017-May-19 16:30N 57°46' E 009°59'714.4
2017-May-19 16:00N 57°47' E 010°13'714.0
2017-May-19 15:30N 57°48' E 010°25'713.7
2017-May-19 15:00N 57°49' E 010°38'1312.8
2017-May-19 14:00N 57°42' E 010°58'713.8
2017-May-19 13:30N 57°37' E 011°08'714.4
2017-May-19 13:00N 57°32' E 011°18'713.6
2017-May-19 12:30N 57°28' E 011°26'714.0
2017-May-19 12:00N 57°21' E 011°31'714.1
2017-May-19 11:30N 57°14' E 011°35'714.0
2017-May-19 11:00N 57°08' E 011°39'713.7
2017-May-19 10:29N 57°01' E 011°44'813.9
2017-May-19 09:56N 56°54' E 011°48'714.1
2017-May-19 09:27N 56°48' E 011°52'613.2
2017-May-19 09:00N 56°42' E 011°50'714.7
2017-May-19 08:30N 56°35' E 011°43'714.6
2017-May-19 08:00N 56°29' E 011°37'814.4
2017-May-19 07:27N 56°22' E 011°29'614.1
2017-May-19 07:00N 56°17' E 011°24'714.1
2017-May-19 06:30N 56°11' E 011°17'5511.5
2017-May-19 01:41N 55°16' E 011°04'1712.5
2017-May-19 00:19N 54°59' E 010°59'413.4
2017-May-19 00:00N 54°56' E 010°53'713.2
2017-May-18 23:30N 54°50' E 010°51'612.5
2017-May-18 23:00N 54°44' E 010°47'612.1
2017-May-18 22:30N 54°39' E 010°52'713.7
2017-May-18 22:00N 54°36' E 011°03'713.9
2017-May-18 21:30N 54°35' E 011°14'714.2
2017-May-18 21:00N 54°32' E 011°25'714.1
2017-May-18 20:29N 54°28' E 011°37'1613.4
2017-May-18 19:16N 54°26' E 012°05'413.6
2017-May-18 19:00N 54°27' E 012°10'714.1
2017-May-18 18:30N 54°33' E 012°15'713.7
2017-May-18 18:00N 54°38' E 012°23'3813.9
2017-May-18 15:16N 54°55' E 013°22'414.3
2017-May-18 15:00N 54°56' E 013°29'1414.3
2017-May-18 14:00N 55°01' E 013°52'714.3
2017-May-18 13:30N 55°04' E 014°03'713.7
2017-May-18 13:00N 55°08' E 014°12'713.3
2017-May-18 12:30N 55°14' E 014°17'714.1
2017-May-18 12:00N 55°20' E 014°25'714.3
2017-May-18 11:30N 55°26' E 014°32'713.8
2017-May-18 11:00N 55°28' E 014°43'  

Dump ship's entire track history